Gooik, Belgium
Current Conditions -  °F | °C
As of 3:25 PM on Thursday 23 Oct 2014 (Local Time) from EBCV Reporting Station
Overcast Overcast  
Wind Chill: 57°   Ceiling: 4600
Heat Index: 57°   Visibility: 6mi
Dew Point: 50°   Wind: 10mph
Humidity: 77%   Direction: 210°SSW
Pressure: 30.21"   Gusts: NA
Location:  50.79°N, 4.11°E
Report Text: EBCV 231325Z AUTO 21009KT 9999 OVC046/// 14/10 Q1023 BLU
Loading
Personal Weather Stations






























Interactive Weather Map
Tropical Storm Tracking
New forecast layout! Learn more

10-Day Weather Forecast

Advertisements
Track Severe Weather on mobile